HAWK410 ETHL-ZZZZ

Flight info

Callsign HAWK410
Flight time N/A
Altitude 8000
Route VFR
Aircraft EC45/L-SDE3FGHIRTWY/S

Departure

Time 2026-05-06 13:40
Airport Laupheim Air Base (ETHL)

Arrival

Time N/A
Airport ZZZZ
Time Latitude Longitude Altitude Speed Heading
2026-05-06 13:31 48.21715 9.91199 1771 ft 0 kts 292°
2026-05-06 13:38 48.21716 9.91198 1774 ft 1 kts 295°
2026-05-06 13:38 48.21747 9.91188 1777 ft 10 kts 25°
2026-05-06 13:38 48.21825 9.91218 1781 ft 14 kts
2026-05-06 13:38 48.21926 9.91228 1784 ft 16 kts 359°
2026-05-06 13:39 48.22001 9.91217 1786 ft 19 kts 274°
2026-05-06 13:39 48.22031 9.90421 1992 ft 83 kts 271°
2026-05-06 13:39 48.22027 9.89800 2088 ft 92 kts 259°
2026-05-06 13:39 48.21783 9.88879 2143 ft 100 kts 244°
2026-05-06 13:40 48.21295 9.87741 2300 ft 99 kts 203°
2026-05-06 13:40 48.20843 9.87670 2384 ft 98 kts 186°
2026-05-06 13:40 48.20133 9.87716 2444 ft 106 kts 164°
2026-05-06 13:40 48.19877 9.88724 2466 ft 105 kts 84°
2026-05-06 13:41 48.19936 9.89742 2648 ft 96 kts 92°
2026-05-06 13:41 48.19930 9.90758 2757 ft 98 kts 90°
2026-05-06 13:41 48.19939 9.91800 2783 ft 104 kts 90°
2026-05-06 13:41 48.19936 9.92927 2748 ft 110 kts 90°
2026-05-06 13:42 48.19923 9.94087 2723 ft 111 kts 91°
2026-05-06 13:42 48.19902 9.95238 2766 ft 109 kts 92°
2026-05-06 13:42 48.19873 9.96369 2802 ft 109 kts 93°
2026-05-06 13:42 48.19833 9.97508 2821 ft 110 kts 93°
2026-05-06 13:43 48.19786 9.98656 2840 ft 111 kts 93°
2026-05-06 13:43 48.19745 9.99811 2845 ft 111 kts 92°
2026-05-06 13:43 48.19713 10.00978 2854 ft 112 kts 92°
2026-05-06 13:43 48.19691 10.02145 2872 ft 112 kts 91°
2026-05-06 13:44 48.19678 10.03313 2905 ft 112 kts 91°
2026-05-06 13:44 48.19675 10.04481 2917 ft 112 kts 90°
2026-05-06 13:44 48.19681 10.05652 2901 ft 112 kts 88°
2026-05-06 13:44 48.19695 10.06851 2983 ft 122 kts 88°
2026-05-06 13:45 48.19869 10.08176 2975 ft 137 kts 71°
2026-05-06 13:45 48.20435 10.11012 2961 ft 143 kts 74°
2026-05-06 13:45 48.20682 10.12463 2989 ft 143 kts 76°
2026-05-06 13:46 48.20910 10.13916 3015 ft 143 kts 77°
2026-05-06 13:46 48.21130 10.15371 3025 ft 143 kts 77°
2026-05-06 13:46 48.21341 10.16823 3046 ft 143 kts 78°
2026-05-06 13:46 48.21545 10.18285 3078 ft 143 kts 78°
2026-05-06 13:47 48.21740 10.19742 3097 ft 143 kts 78°
2026-05-06 13:47 48.21928 10.21211 3112 ft 143 kts 79°
2026-05-06 13:47 48.22107 10.22671 3109 ft 142 kts 79°
2026-05-06 13:47 48.22277 10.24133 3108 ft 142 kts 80°
2026-05-06 13:48 48.22438 10.25581 3108 ft 142 kts 81°
2026-05-06 13:48 48.22595 10.27067 3122 ft 142 kts 81°
2026-05-06 13:48 48.22741 10.28530 3135 ft 142 kts 82°
2026-05-06 13:48 48.22879 10.29998 3143 ft 142 kts 82°
2026-05-06 13:49 48.23009 10.31461 3157 ft 142 kts 82°
2026-05-06 13:49 48.23129 10.32916 3178 ft 142 kts 83°
2026-05-06 13:49 48.23244 10.34404 3185 ft 142 kts 83°
2026-05-06 13:49 48.23348 10.35852 3199 ft 141 kts 84°
2026-05-06 13:50 48.23445 10.37317 3205 ft 141 kts 84°
2026-05-06 13:50 48.23539 10.38784 3218 ft 141 kts 84°
2026-05-06 13:50 48.23641 10.40251 3222 ft 141 kts 84°
2026-05-06 13:50 48.23752 10.41710 3225 ft 141 kts 83°
2026-05-06 13:51 48.23872 10.43173 3235 ft 141 kts 83°
2026-05-06 13:51 48.24002 10.44644 3230 ft 141 kts 82°
2026-05-06 13:51 48.24139 10.46077 3239 ft 141 kts 82°
2026-05-06 13:51 48.24331 10.47517 3244 ft 140 kts 77°
2026-05-06 13:52 48.24597 10.48920 3247 ft 140 kts 72°
2026-05-06 13:52 48.24895 10.50323 3256 ft 140 kts 72°
2026-05-06 13:52 48.25184 10.51723 3274 ft 140 kts 73°
2026-05-06 13:52 48.25464 10.53127 3281 ft 140 kts 73°
2026-05-06 13:53 48.25736 10.54531 3290 ft 140 kts 74°
2026-05-06 13:53 48.26000 10.55942 3296 ft 140 kts 75°
2026-05-06 13:53 48.26257 10.57359 3307 ft 140 kts 75°
2026-05-06 13:53 48.26505 10.58771 3310 ft 140 kts 75°
2026-05-06 13:54 48.26759 10.60183 3324 ft 140 kts 75°
2026-05-06 13:54 48.27024 10.61600 3337 ft 140 kts 74°
2026-05-06 13:54 48.27294 10.63002 3347 ft 140 kts 73°
2026-05-06 13:54 48.27574 10.64406 3354 ft 140 kts 73°
2026-05-06 13:55 48.27860 10.65798 3368 ft 140 kts 72°
2026-05-06 13:55 48.28156 10.67188 3384 ft 140 kts 72°
2026-05-06 13:55 48.28460 10.68577 3394 ft 140 kts 71°
2026-05-06 13:55 48.28771 10.69960 3406 ft 140 kts 71°
2026-05-06 13:56 48.29085 10.71331 3416 ft 140 kts 71°
2026-05-06 13:56 48.29394 10.72719 3424 ft 139 kts 71°
2026-05-06 13:56 48.29689 10.74088 3430 ft 139 kts 72°
2026-05-06 13:56 48.29981 10.75477 3443 ft 139 kts 72°
2026-05-06 13:57 48.30263 10.76866 3448 ft 139 kts 73°
2026-05-06 13:57 48.30535 10.78249 3455 ft 139 kts 73°
2026-05-06 13:57 48.30803 10.79659 3467 ft 139 kts 74°
2026-05-06 13:57 48.31060 10.81059 3476 ft 139 kts 75°
2026-05-06 13:58 48.31309 10.82460 3502 ft 139 kts 75°
2026-05-06 13:58 48.31550 10.83867 3515 ft 139 kts 75°
2026-05-06 13:58 48.31782 10.85279 3529 ft 139 kts 76°
2026-05-06 13:58 48.32004 10.86680 3553 ft 139 kts 76°
2026-05-06 13:59 48.32220 10.88095 3572 ft 139 kts 77°
2026-05-06 13:59 48.32427 10.89513 3603 ft 139 kts 77°
2026-05-06 13:59 48.32625 10.90927 3647 ft 138 kts 78°
2026-05-06 13:59 48.32813 10.92340 3665 ft 138 kts 78°
2026-05-06 14:00 48.32975 10.93606 3680 ft 138 kts 79°
2026-05-06 14:00 48.33147 10.95027 3684 ft 140 kts 79°
2026-05-06 14:00 48.33328 10.96484 3628 ft 143 kts 78°
2026-05-06 14:00 48.33524 10.97959 3581 ft 143 kts 78°
2026-05-06 14:01 48.33731 10.99408 3566 ft 142 kts 77°
2026-05-06 14:01 48.33951 11.00861 3433 ft 148 kts 76°
2026-05-06 14:01 48.34196 11.02362 3376 ft 145 kts 75°
2026-05-06 14:01 48.34450 11.03812 3366 ft 142 kts 75°
2026-05-06 14:02 48.34719 11.05239 3391 ft 142 kts 73°
2026-05-06 14:02 48.35013 11.06644 3391 ft 141 kts 71°
2026-05-06 14:02 48.35330 11.08033 3393 ft 140 kts 70°
2026-05-06 14:02 48.35654 11.09395 3397 ft 140 kts 70°
2026-05-06 14:03 48.35990 11.10764 3406 ft 139 kts 69°
2026-05-06 14:03 48.36334 11.12122 3438 ft 139 kts 69°
2026-05-06 14:03 48.36688 11.13473 3450 ft 139 kts 68°
2026-05-06 14:03 48.37051 11.14819 3473 ft 139 kts 68°
2026-05-06 14:04 48.37422 11.16157 3508 ft 139 kts 66°
2026-05-06 14:04 48.37803 11.17490 3547 ft 139 kts 67°
2026-05-06 14:04 48.38193 11.18817 3561 ft 139 kts 66°
2026-05-06 14:04 48.38591 11.20141 3576 ft 139 kts 65°
2026-05-06 14:05 48.38997 11.21452 3604 ft 139 kts 64°
2026-05-06 14:05 48.39429 11.22813 3386 ft 150 kts 63°
2026-05-06 14:05 48.39888 11.24187 3368 ft 144 kts 62°
2026-05-06 14:05 48.40346 11.25498 3372 ft 140 kts 62°
2026-05-06 14:06 48.40808 11.26779 3375 ft 139 kts 61°
2026-05-06 14:06 48.41281 11.28048 3384 ft 138 kts 60°
2026-05-06 14:06 48.41758 11.29288 3389 ft 137 kts 59°
2026-05-06 14:06 48.42250 11.30528 3399 ft 137 kts 58°
2026-05-06 14:07 48.42745 11.31733 3389 ft 136 kts 57°
2026-05-06 14:07 48.43256 11.32933 3380 ft 135 kts 56°
2026-05-06 14:07 48.43775 11.34107 3380 ft 134 kts 56°
2026-05-06 14:07 48.44295 11.35242 3375 ft 133 kts 54°
2026-05-06 14:08 48.44836 11.36381 3378 ft 134 kts 54°
2026-05-06 14:08 48.45389 11.37499 3381 ft 132 kts 52°
2026-05-06 14:08 48.45949 11.38576 3387 ft 130 kts 51°
2026-05-06 14:08 48.46513 11.39651 3392 ft 129 kts 51°
2026-05-06 14:09 48.47059 11.40712 3369 ft 128 kts 52°
2026-05-06 14:09 48.47595 11.41789 3377 ft 129 kts 53°
2026-05-06 14:09 48.48118 11.42878 3365 ft 129 kts 54°
2026-05-06 14:09 48.48631 11.44006 3364 ft 132 kts 56°
2026-05-06 14:10 48.49129 11.45179 3380 ft 134 kts 57°
2026-05-06 14:10 48.49615 11.46388 3384 ft 135 kts 58°
2026-05-06 14:10 48.50090 11.47611 3374 ft 135 kts 59°
2026-05-06 14:10 48.50574 11.48830 3387 ft 136 kts 58°
2026-05-06 14:11 48.51067 11.50043 3377 ft 136 kts 58°
2026-05-06 14:11 48.51572 11.51255 3387 ft 136 kts 57°
2026-05-06 14:11 48.52085 11.52452 3384 ft 136 kts 56°
2026-05-06 14:11 48.52610 11.53638 3387 ft 135 kts 55°
2026-05-06 14:12 48.53140 11.54796 3377 ft 135 kts 54°
2026-05-06 14:12 48.53683 11.55956 3387 ft 135 kts 54°
2026-05-06 14:12 48.54234 11.57107 3388 ft 136 kts 53°
2026-05-06 14:12 48.54798 11.58253 3395 ft 135 kts 52°
2026-05-06 14:13 48.55364 11.59372 3409 ft 135 kts 52°
2026-05-06 14:13 48.55944 11.60476 3391 ft 133 kts 51°
2026-05-06 14:13 48.56537 11.61565 3390 ft 133 kts 49°
2026-05-06 14:13 48.57128 11.62614 3388 ft 133 kts 48°
2026-05-06 14:14 48.57737 11.63663 3377 ft 133 kts 48°
2026-05-06 14:14 48.58358 11.64717 3380 ft 135 kts 48°
2026-05-06 14:14 48.58989 11.65773 3379 ft 136 kts 47°
2026-05-06 14:14 48.59618 11.66853 3395 ft 136 kts 49°
2026-05-06 14:15 48.60227 11.67940 3397 ft 134 kts 50°
2026-05-06 14:15 48.60816 11.69032 3390 ft 134 kts 51°
2026-05-06 14:15 48.61395 11.70156 3381 ft 134 kts 52°
2026-05-06 14:15 48.61943 11.71271 3386 ft 134 kts 54°
2026-05-06 14:16 48.62483 11.72409 3399 ft 132 kts 55°
2026-05-06 14:16 48.63004 11.73536 3400 ft 130 kts 56°
2026-05-06 14:16 48.63510 11.74656 3388 ft 129 kts 56°
2026-05-06 14:16 48.64003 11.75786 3389 ft 129 kts 57°
2026-05-06 14:17 48.64482 11.76931 3378 ft 130 kts 58°
2026-05-06 14:17 48.64950 11.78107 3382 ft 131 kts 59°
2026-05-06 14:17 48.65402 11.79306 3371 ft 132 kts 61°
2026-05-06 14:17 48.65837 11.80534 3374 ft 133 kts 62°
2026-05-06 14:18 48.66255 11.81800 3379 ft 134 kts 64°
2026-05-06 14:18 48.66653 11.83080 3385 ft 135 kts 65°
2026-05-06 14:18 48.67044 11.84364 3380 ft 134 kts 65°
2026-05-06 14:18 48.67426 11.85635 3391 ft 134 kts 65°
2026-05-06 14:19 48.67817 11.86925 3396 ft 132 kts 65°
2026-05-06 14:19 48.68195 11.88158 3389 ft 130 kts 65°
2026-05-06 14:19 48.68576 11.89378 3384 ft 129 kts 65°
2026-05-06 14:19 48.68963 11.90610 3369 ft 129 kts 64°
2026-05-06 14:20 48.69346 11.91844 3379 ft 130 kts 65°
2026-05-06 14:20 48.69726 11.93085 3363 ft 131 kts 65°
2026-05-06 14:20 48.70104 11.94348 3379 ft 132 kts 66°
2026-05-06 14:20 48.70481 11.95621 3386 ft 132 kts 66°
2026-05-06 14:21 48.70853 11.96883 3380 ft 131 kts 67°
2026-05-06 14:21 48.71221 11.98136 3371 ft 130 kts 65°
2026-05-06 14:21 48.71588 11.99389 3360 ft 130 kts 66°
2026-05-06 14:21 48.71952 12.00653 3371 ft 131 kts 67°
2026-05-06 14:22 48.72314 12.01921 3374 ft 131 kts 66°
2026-05-06 14:22 48.72672 12.03189 3365 ft 132 kts 66°
2026-05-06 14:22 48.72908 12.04038 3371 ft 132 kts 67°
2026-05-06 14:22 48.73260 12.05315 3374 ft 131 kts 67°
2026-05-06 14:23 48.73624 12.06587 3360 ft 130 kts 66°
2026-05-06 14:23 48.73996 12.07836 3368 ft 131 kts 65°
2026-05-06 14:23 48.74384 12.09089 3372 ft 131 kts 65°
2026-05-06 14:23 48.74781 12.10325 3373 ft 131 kts 64°
2026-05-06 14:24 48.75191 12.11566 3358 ft 132 kts 64°
2026-05-06 14:24 48.75609 12.12804 3379 ft 132 kts 63°
2026-05-06 14:24 48.76040 12.14033 3373 ft 131 kts 62°
2026-05-06 14:24 48.76481 12.15251 3358 ft 132 kts 61°
2026-05-06 14:25 48.76931 12.16470 3370 ft 133 kts 60°
2026-05-06 14:25 48.77392 12.17684 3374 ft 132 kts 59°
2026-05-06 14:25 48.77800 12.18917 3378 ft 130 kts 66°
2026-05-06 14:25 48.78111 12.20182 3355 ft 128 kts 72°
2026-05-06 14:26 48.78323 12.21499 3373 ft 128 kts 78°
2026-05-06 14:26 48.78431 12.22846 3352 ft 130 kts 85°
2026-05-06 14:26 48.78470 12.24226 3368 ft 132 kts 87°
2026-05-06 14:26 48.78535 12.25609 3356 ft 131 kts 85°
2026-05-06 14:27 48.78628 12.26992 3353 ft 132 kts 83°
2026-05-06 14:27 48.78747 12.28376 3360 ft 133 kts 82°
2026-05-06 14:27 48.78893 12.29760 3358 ft 133 kts 80°
2026-05-06 14:27 48.79061 12.31135 3362 ft 132 kts 79°
2026-05-06 14:28 48.79226 12.32502 3356 ft 132 kts 80°
2026-05-06 14:28 48.79387 12.33869 3375 ft 132 kts 79°
2026-05-06 14:28 48.79541 12.35221 3364 ft 131 kts 81°
2026-05-06 14:28 48.79695 12.36600 3364 ft 131 kts 80°
2026-05-06 14:29 48.79845 12.37952 3369 ft 130 kts 80°
2026-05-06 14:29 48.80005 12.39278 3370 ft 130 kts 79°
2026-05-06 14:29 48.80213 12.40612 3375 ft 130 kts 75°
2026-05-06 14:29 48.80479 12.41933 3373 ft 130 kts 72°
2026-05-06 14:30 48.80762 12.43177 3370 ft 128 kts 71°
2026-05-06 14:30 48.81055 12.44457 3351 ft 128 kts 71°
2026-05-06 14:30 48.81347 12.45748 3363 ft 129 kts 72°
2026-05-06 14:30 48.81633 12.47031 3371 ft 129 kts 72°
2026-05-06 14:31 48.81920 12.48316 3363 ft 128 kts 72°
2026-05-06 14:31 48.82205 12.49605 3364 ft 129 kts 73°
2026-05-06 14:31 48.82485 12.50898 3369 ft 129 kts 72°
2026-05-06 14:31 48.82777 12.52189 3384 ft 128 kts 70°
2026-05-06 14:32 48.83112 12.53446 3368 ft 129 kts 66°
2026-05-06 14:32 48.83492 12.54684 3399 ft 130 kts 64°
2026-05-06 14:32 48.83917 12.55887 3406 ft 128 kts 61°
2026-05-06 14:32 48.84381 12.57014 3377 ft 126 kts 58°
2026-05-06 14:33 48.84892 12.58107 3365 ft 127 kts 55°
2026-05-06 14:33 48.85419 12.59190 3379 ft 128 kts 55°
2026-05-06 14:33 48.85940 12.60268 3354 ft 128 kts 55°
2026-05-06 14:33 48.86472 12.61377 3370 ft 129 kts 55°
2026-05-06 14:34 48.86999 12.62480 3376 ft 128 kts 55°
2026-05-06 14:34 48.87516 12.63554 3359 ft 127 kts 55°
2026-05-06 14:34 48.88037 12.64643 3303 ft 127 kts 55°
2026-05-06 14:34 48.88541 12.65747 3079 ft 121 kts 59°
2026-05-06 14:35 48.88961 12.66674 2797 ft 95 kts 57°
2026-05-06 14:35 48.89322 12.67414 2538 ft 83 kts 57°
2026-05-06 14:35 48.89650 12.68080 2271 ft 77 kts 64°
2026-05-06 14:35 48.89780 12.68947 2004 ft 89 kts 87°
2026-05-06 14:36 48.89799 12.69825 1948 ft 78 kts 88°
2026-05-06 14:36 48.89862 12.70596 1905 ft 71 kts 72°
2026-05-06 14:36 48.90119 12.71202 1862 ft 67 kts 44°
2026-05-06 14:36 48.90529 12.71487 1739 ft 65 kts
2026-05-06 14:37 48.90945 12.71262 1627 ft 65 kts 322°
2026-05-06 14:37 48.91065 12.70650 1539 ft 73 kts 237°
2026-05-06 14:37 48.90753 12.70063 1580 ft 71 kts 233°
2026-05-06 14:37 48.90426 12.69530 1524 ft 67 kts 210°
2026-05-06 14:38 48.90008 12.69410 1336 ft 59 kts 158°
2026-05-06 14:38 48.89919 12.69475 1286 ft 58 kts 141°
2026-05-06 14:38 48.89705 12.69941 1225 ft 56 kts 110°
2026-05-06 14:38 48.89640 12.70199 1202 ft 55 kts 102°
2026-05-06 14:39 48.89629 12.70257 1200 ft 55 kts 102°
2026-05-06 14:40 48.89732 12.70620 1247 ft 45 kts 350°
2026-05-06 14:40 48.89819 12.70234 1241 ft 35 kts 208°
2026-05-06 14:40 48.89755 12.70315 1154 ft 17 kts 103°
2026-05-06 14:40 48.89753 12.70397 1069 ft 2 kts 109°
2026-05-06 14:41 48.89750 12.70414 1056 ft 0 kts 112°
2026-05-06 14:41 48.89749 12.70414 1051 ft 0 kts 110°
2026-05-06 14:42 48.89728 12.70474 1211 ft 37 kts 109°
2026-05-06 14:42 48.89363 12.70869 1427 ft 97 kts 181°
2026-05-06 14:42 48.89342 12.69968 1386 ft 110 kts 330°
2026-05-06 14:42 48.89746 12.70251 1170 ft 37 kts 96°
2026-05-06 14:43 48.89745 12.70416 1056 ft 1 kts 97°
2026-05-06 14:43 48.89745 12.70421 1055 ft 1 kts 99°
2026-05-06 14:43 48.89744 12.70422 1047 ft 0 kts 100°
2026-05-06 14:44 48.89743 12.70424 1066 ft 1 kts 103°
2026-05-06 14:45 48.89635 12.70892 1263 ft 43 kts 142°
2026-05-06 14:45 48.89428 12.70734 1304 ft 35 kts 263°
2026-05-06 14:45 48.89400 12.70423 1274 ft 27 kts 260°
2026-05-06 14:45 48.89409 12.70149 1267 ft 24 kts 305°
2026-05-06 14:46 48.89498 12.69955 1248 ft 22 kts 315°
2026-05-06 14:46 48.89608 12.69793 1225 ft 18 kts 315°
2026-05-06 14:46 48.89649 12.69740 1164 ft 3 kts 318°
2026-05-06 14:46 48.89637 12.69730 1165 ft 1 kts 319°
2026-05-06 14:47 48.89636 12.69738 1168 ft 2 kts 320°
2026-05-06 14:47 48.89642 12.69754 1164 ft 2 kts 321°
2026-05-06 14:47 48.89654 12.69765 1151 ft 2 kts 320°
2026-05-06 14:47 48.89662 12.69758 1145 ft 3 kts 320°
2026-05-06 14:48 48.89661 12.69772 1140 ft 4 kts 320°
2026-05-06 14:48 48.89648 12.69748 1229 ft 15 kts 313°
2026-05-06 14:48 48.89752 12.69581 1241 ft 27 kts 359°
2026-05-06 14:48 48.89877 12.69725 1300 ft 37 kts 80°
2026-05-06 14:49 48.89792 12.70148 1313 ft 33 kts 97°
2026-05-06 14:49 48.89762 12.70357 1113 ft 13 kts 97°
2026-05-06 14:49 48.89755 12.70400 1055 ft 1 kts 100°
2026-05-06 14:49 48.89754 12.70403 1048 ft 0 kts 99°
2026-05-06 14:50 48.89747 12.70427 1124 ft 23 kts 104°
2026-05-06 14:50 48.89480 12.70920 1317 ft 81 kts 163°
2026-05-06 14:51 48.89496 12.70160 1080 ft 83 kts 292°
2026-05-06 14:51 48.89639 12.69783 1040 ft 6 kts 294°
2026-05-06 14:51 48.89653 12.69773 1036 ft 0 kts 307°
2026-05-06 14:52 48.89662 12.69744 1082 ft 30 kts 303°
2026-05-06 14:52 48.89892 12.69712 1118 ft 81 kts 121°
2026-05-06 14:52 48.89746 12.70296 1195 ft 34 kts 71°
2026-05-06 14:52 48.89736 12.70432 1068 ft 1 kts 106°
2026-05-06 14:53 48.89733 12.70437 1049 ft 0 kts 105°
2026-05-06 14:53 48.89735 12.70436 1078 ft 1 kts 108°
2026-05-06 14:53 48.89561 12.70816 1315 ft 87 kts 153°
2026-05-06 14:54 48.89512 12.70062 1143 ft 71 kts 299°
2026-05-06 14:54 48.89649 12.69788 1043 ft 4 kts 304°
2026-05-06 14:54 48.89654 12.69775 1039 ft 2 kts 306°
2026-05-06 14:54 48.89655 12.69775 1034 ft 0 kts 304°
2026-05-06 14:55 48.89652 12.69779 1051 ft 3 kts 308°
2026-05-06 14:55 48.89740 12.69684 1211 ft 62 kts 326°
2026-05-06 14:55 48.89773 12.70100 1246 ft 26 kts 100°
2026-05-06 14:55 48.89782 12.70259 1253 ft 14 kts 104°
2026-05-06 14:56 48.89762 12.70395 1105 ft 10 kts 106°
2026-05-06 14:56 48.89746 12.70420 1050 ft 2 kts 110°
2026-05-06 14:56 48.89751 12.70412 1198 ft 4 kts 110°
2026-05-06 14:56 48.89507 12.70804 1366 ft 80 kts 205°
2026-05-06 14:57 48.89583 12.70318 1219 ft 42 kts 295°
2026-05-06 14:57 48.89685 12.69868 1480 ft 59 kts 304°
2026-05-06 14:57 48.89347 12.70099 1289 ft 100 kts 118°
2026-05-06 14:57 48.89502 12.70356 1081 ft 85 kts 303°
2026-05-06 14:58 48.89707 12.69851 1048 ft 21 kts 297°
2026-05-06 14:58 48.89714 12.69839 1046 ft 1 kts 306°
2026-05-06 14:58 48.89895 12.69364 1240 ft 60 kts 229°
2026-05-06 14:58 48.89553 12.69791 1067 ft 82 kts 110°
2026-05-06 14:59 48.89440 12.70488 1101 ft 66 kts 326°
2026-05-06 14:59 48.89680 12.69900 1050 ft 50 kts 305°
2026-05-06 14:59 48.89720 12.69837 1044 ft 0 kts 213°
2026-05-06 14:59 48.89720 12.69820 1056 ft 23 kts 301°
2026-05-06 15:00 48.89705 12.69522 1167 ft 67 kts 108°
2026-05-06 15:00 48.89593 12.69787 1161 ft 16 kts 311°
2026-05-06 15:00 48.89653 12.69773 1046 ft 2 kts 312°
2026-05-06 15:00 48.89655 12.69770 1038 ft 0 kts 311°
2026-05-06 15:01 48.89655 12.69771 1039 ft 1 kts 312°
2026-05-06 15:01 48.89844 12.69348 1090 ft 93 kts 311°
2026-05-06 15:01 48.89787 12.69674 1064 ft 56 kts 117°
2026-05-06 15:01 48.89711 12.69827 1052 ft 5 kts 40°
2026-05-06 15:02 48.89715 12.69842 1043 ft 0 kts 36°
2026-05-06 15:02 48.89702 12.69863 1058 ft 22 kts 107°
2026-05-06 15:02 48.89771 12.69937 1072 ft 33 kts 206°
2026-05-06 15:02 48.89748 12.69864 1043 ft 2 kts 126°
2026-05-06 15:03 48.89741 12.69852 1040 ft 1 kts 107°
2026-05-06 15:03 48.89741 12.69853 1048 ft 3 kts 102°
2026-05-06 15:03 48.89710 12.70091 1116 ft 50 kts 102°
2026-05-06 15:03 48.89714 12.70350 1144 ft 23 kts 236°
2026-05-06 15:04 48.89649 12.69929 1209 ft 38 kts 274°
2026-05-06 15:04 48.89638 12.69775 1054 ft 1 kts 300°
2026-05-06 15:04 48.89651 12.69770 1043 ft 1 kts 303°
2026-05-06 15:04 48.89654 12.69772 1034 ft 0 kts 302°
2026-05-06 15:05 48.89625 12.69816 1074 ft 44 kts 142°
2026-05-06 15:05 48.89754 12.70293 1181 ft 39 kts 73°
2026-05-06 15:05 48.89744 12.70401 1089 ft 8 kts 87°
2026-05-06 15:05 48.89742 12.70423 1048 ft 0 kts 86°
2026-05-06 15:06 48.89654 12.70740 1261 ft 82 kts 107°
2026-05-06 15:06 48.89517 12.71559 1626 ft 85 kts 45°
2026-05-06 15:07 48.90058 12.71351 1746 ft 100 kts 309°
2026-05-06 15:07 48.90157 12.70269 1690 ft 115 kts 250°
2026-05-06 15:07 48.89664 12.69744 1483 ft 77 kts 105°
2026-05-06 15:07 48.89727 12.70296 1162 ft 32 kts 66°
2026-05-06 15:08 48.89740 12.70407 1055 ft 2 kts 60°
2026-05-06 15:08 48.89746 12.70418 1056 ft 1 kts 77°
2026-05-06 15:08 48.89748 12.70421 1050 ft 1 kts 114°
2026-05-06 15:08 48.89748 12.70423 1048 ft 0 kts 113°